createdAt,value
2019-01-06T00:01:11.074Z,6.70
2019-01-06T00:03:59.918Z,6.70
2019-01-06T00:06:55.492Z,6.70
2019-01-06T00:09:53.886Z,6.80
2019-01-06T00:12:48.005Z,6.80
2019-01-06T00:15:49.534Z,6.90
2019-01-06T00:18:42.946Z,6.90
2019-01-06T00:21:41.279Z,6.90
2019-01-06T00:24:34.040Z,6.90
2019-01-06T00:27:22.196Z,6.90
2019-01-06T00:30:14.462Z,6.90
2019-01-06T00:33:04.042Z,6.80
2019-01-06T00:35:52.718Z,6.90
2019-01-06T00:38:42.635Z,6.90
2019-01-06T00:41:27.701Z,6.80
2019-01-06T00:44:16.967Z,6.80
2019-01-06T00:47:09.207Z,6.90
2019-01-06T00:49:58.435Z,6.90
2019-01-06T00:53:05.875Z,6.90
2019-01-06T00:55:52.650Z,6.80
2019-01-06T00:58:40.755Z,6.80
2019-01-06T01:01:33.585Z,6.80
2019-01-06T01:04:35.013Z,6.80
2019-01-06T01:07:23.224Z,6.80
2019-01-06T01:10:12.728Z,6.80
2019-01-06T01:13:09.553Z,6.80
2019-01-06T01:16:04.801Z,6.80
2019-01-06T01:18:48.403Z,6.80
2019-01-06T01:21:46.370Z,6.80
2019-01-06T01:24:34.021Z,6.90
2019-01-06T01:27:21.694Z,6.90
2019-01-06T01:30:10.951Z,6.90
2019-01-06T01:32:59.021Z,7.00
2019-01-06T01:35:47.465Z,6.90
2019-01-06T01:38:42.530Z,6.90
2019-01-06T01:41:37.236Z,6.90
2019-01-06T01:44:24.721Z,6.90
2019-01-06T01:47:08.984Z,6.90
2019-01-06T01:49:56.711Z,6.90
2019-01-06T01:52:44.810Z,6.90
2019-01-06T01:55:32.972Z,6.90
2019-01-06T01:58:21.212Z,6.90
2019-01-06T02:01:03.995Z,6.90
2019-01-06T02:03:59.540Z,6.90
2019-01-06T02:06:45.108Z,6.90
2019-01-06T02:09:33.147Z,6.90
2019-01-06T02:12:14.191Z,7.00
2019-01-06T02:15:06.528Z,7.00
2019-01-06T02:17:54.341Z,7.00
2019-01-06T02:20:42.220Z,7.00
2019-01-06T02:23:29.996Z,7.00
2019-01-06T02:26:17.612Z,7.00
2019-01-06T02:29:05.867Z,7.00
2019-01-06T02:31:57.258Z,7.00
2019-01-06T02:34:45.500Z,7.00
2019-01-06T02:37:32.446Z,7.00
2019-01-06T02:40:27.492Z,6.90
2019-01-06T02:43:25.572Z,6.90
2019-01-06T02:46:08.616Z,6.90
2019-01-06T02:49:03.954Z,6.90
2019-01-06T02:51:55.554Z,6.90
2019-01-06T02:54:56.862Z,6.90
2019-01-06T02:57:57.924Z,6.90
2019-01-06T03:00:53.024Z,6.90
2019-01-06T03:03:36.271Z,6.90
2019-01-06T03:06:37.665Z,6.90
2019-01-06T03:09:26.007Z,6.90
2019-01-06T03:12:28.217Z,6.80
2019-01-06T03:15:29.262Z,6.80
2019-01-06T03:18:21.263Z,6.80
2019-01-06T03:21:25.716Z,6.80
2019-01-06T03:24:30.678Z,6.80
2019-01-06T03:27:25.597Z,6.80
2019-01-06T03:30:17.451Z,6.80
2019-01-06T03:33:00.982Z,6.80
2019-01-06T03:35:50.154Z,6.80
2019-01-06T03:38:39.706Z,6.80
2019-01-06T03:41:37.570Z,6.80
2019-01-06T03:44:27.953Z,6.80
2019-01-06T03:47:30.162Z,6.80
2019-01-06T03:50:18.206Z,6.80
2019-01-06T03:53:01.177Z,6.80
2019-01-06T03:56:05.616Z,6.80
2019-01-06T03:58:53.289Z,6.80
2019-01-06T04:01:33.078Z,6.80
2019-01-06T04:04:31.536Z,6.80
2019-01-06T04:07:23.865Z,6.80
2019-01-06T04:10:12.964Z,6.80
2019-01-06T04:13:00.724Z,6.80
2019-01-06T04:15:49.633Z,6.80
2019-01-06T04:18:37.860Z,6.80
2019-01-06T04:21:25.566Z,6.80
2019-01-06T04:24:19.501Z,6.80
2019-01-06T04:27:21.403Z,6.80
2019-01-06T04:30:25.596Z,6.80
2019-01-06T04:33:23.112Z,6.70
2019-01-06T04:36:30.170Z,6.70
2019-01-06T04:39:18.219Z,6.70
2019-01-06T04:42:06.201Z,6.70
2019-01-06T04:45:01.166Z,6.70
2019-01-06T04:47:50.090Z,6.70
2019-01-06T04:50:48.673Z,6.70
2019-01-06T04:53:52.965Z,6.70
2019-01-06T04:56:40.667Z,6.60
2019-01-06T04:59:30.574Z,6.60
2019-01-06T05:02:31.627Z,6.50
2019-01-06T05:05:33.357Z,6.50
2019-01-06T05:08:22.791Z,6.50
2019-01-06T05:11:29.873Z,6.40
2019-01-06T05:14:28.415Z,6.40
2019-01-06T05:17:12.969Z,6.40
2019-01-06T05:20:07.219Z,6.30
2019-01-06T05:22:59.070Z,6.40
2019-01-06T05:25:47.527Z,6.40
2019-01-06T05:28:36.427Z,6.40
2019-01-06T05:31:37.771Z,6.40
2019-01-06T05:34:28.908Z,6.40
2019-01-06T05:37:18.573Z,6.40
2019-01-06T05:40:07.662Z,6.50
2019-01-06T05:42:55.717Z,6.50
2019-01-06T05:45:43.543Z,6.50
2019-01-06T05:48:48.464Z,6.50
2019-01-06T05:51:43.632Z,6.50
2019-01-06T05:54:32.689Z,6.50
2019-01-06T05:57:22.593Z,6.50
2019-01-06T06:00:17.763Z,6.50
2019-01-06T06:03:10.326Z,6.50
2019-01-06T06:05:59.692Z,6.60
2019-01-06T06:08:55.003Z,6.60
2019-01-06T06:11:52.972Z,6.60
2019-01-06T06:14:41.090Z,6.70
2019-01-06T06:17:28.537Z,6.70
2019-01-06T06:20:16.539Z,6.70
2019-01-06T06:23:08.401Z,6.70
2019-01-06T06:25:56.144Z,6.70
2019-01-06T06:28:45.562Z,6.80
2019-01-06T06:31:40.488Z,6.80
2019-01-06T06:34:48.703Z,6.80
2019-01-06T06:37:44.038Z,6.90
2019-01-06T06:40:26.877Z,6.90
2019-01-06T06:43:14.100Z,6.90
2019-01-06T06:46:10.477Z,6.80
2019-01-06T06:48:54.436Z,6.80
2019-01-06T06:51:50.467Z,6.80
2019-01-06T06:54:52.080Z,6.80
2019-01-06T06:58:20.465Z,6.70
2019-01-06T07:01:09.302Z,6.70
2019-01-06T07:04:03.675Z,6.70
2019-01-06T07:07:05.407Z,6.70
2019-01-06T07:10:04.110Z,6.70
2019-01-06T07:12:46.843Z,6.70
2019-01-06T07:15:34.919Z,6.70
2019-01-06T07:18:32.471Z,6.70
2019-01-06T07:21:20.441Z,6.70
2019-01-06T07:24:08.220Z,6.70
2019-01-06T07:26:56.114Z,6.70
2019-01-06T07:29:54.522Z,6.70
2019-01-06T07:32:43.643Z,6.70
2019-01-06T07:35:32.879Z,6.70
2019-01-06T07:38:35.227Z,6.70
2019-01-06T07:41:30.843Z,6.60
2019-01-06T07:44:20.146Z,6.50
2019-01-06T07:47:13.193Z,6.50
2019-01-06T07:50:01.246Z,6.40
2019-01-06T07:52:49.137Z,6.40
2019-01-06T07:55:38.621Z,6.40
2019-01-06T07:58:40.061Z,6.30
2019-01-06T08:01:37.527Z,6.30
2019-01-06T08:04:29.860Z,6.30
2019-01-06T08:07:22.232Z,6.30
2019-01-06T08:10:20.484Z,6.40
2019-01-06T08:13:12.963Z,6.40
2019-01-06T08:16:15.299Z,6.40
2019-01-06T08:19:20.038Z,6.40
2019-01-06T08:22:08.100Z,6.50
2019-01-06T08:25:21.417Z,6.60
2019-01-06T08:28:09.264Z,6.60
2019-01-06T08:30:57.723Z,6.60
2019-01-06T08:34:05.387Z,6.70
2019-01-06T08:37:05.613Z,6.70
2019-01-06T08:39:53.960Z,6.70
2019-01-06T08:42:43.297Z,6.80
2019-01-06T08:45:31.452Z,7.00
2019-01-06T08:48:20.820Z,7.10
2019-01-06T08:51:22.110Z,7.30
2019-01-06T08:54:11.712Z,7.50
2019-01-06T08:57:01.943Z,7.60
2019-01-06T08:59:49.923Z,7.50
2019-01-06T09:02:37.846Z,7.50
2019-01-06T09:05:26.192Z,7.50
2019-01-06T09:08:21.829Z,7.40
2019-01-06T09:11:09.981Z,7.40
2019-01-06T09:14:02.206Z,7.40
2019-01-06T09:16:53.172Z,7.40
2019-01-06T09:19:50.018Z,7.50
2019-01-06T09:22:41.984Z,7.60
2019-01-06T09:25:31.341Z,7.80
2019-01-06T09:28:19.883Z,8.00
2019-01-06T09:31:12.147Z,8.20
2019-01-06T09:34:07.702Z,8.30
2019-01-06T09:36:58.488Z,8.40
2019-01-06T09:39:51.868Z,8.50
2019-01-06T09:42:41.442Z,8.50
2019-01-06T09:45:31.000Z,8.60
2019-01-06T09:48:16.151Z,8.70
2019-01-06T09:51:04.311Z,8.90
2019-01-06T09:54:02.954Z,9.00
2019-01-06T09:57:04.987Z,9.30
2019-01-06T09:59:54.566Z,9.60
2019-01-06T10:02:43.968Z,9.80
2019-01-06T10:05:36.195Z,9.80
2019-01-06T10:08:25.933Z,9.90
2019-01-06T10:11:13.930Z,9.90
2019-01-06T10:14:03.642Z,9.80
2019-01-06T10:16:51.350Z,9.80
2019-01-06T10:19:43.021Z,9.80
2019-01-06T10:22:29.018Z,9.90
2019-01-06T10:25:17.142Z,10.00
2019-01-06T10:27:59.097Z,9.90
2019-01-06T10:30:48.290Z,10.10
2019-01-06T10:33:39.173Z,10.30
2019-01-06T10:36:26.180Z,10.40
2019-01-06T10:39:14.664Z,10.50
2019-01-06T10:42:03.959Z,10.50
2019-01-06T10:44:53.911Z,10.40
2019-01-06T10:47:52.252Z,10.50
2019-01-06T10:50:44.173Z,10.50
2019-01-06T10:53:36.920Z,10.50
2019-01-06T10:56:25.053Z,10.50
2019-01-06T10:59:20.200Z,10.50
2019-01-06T11:02:08.892Z,10.40
2019-01-06T11:04:58.275Z,10.40
2019-01-06T11:07:46.731Z,10.60
2019-01-06T11:10:55.470Z,10.60
2019-01-06T11:13:42.308Z,10.70
2019-01-06T11:16:31.535Z,10.80
2019-01-06T11:19:20.996Z,10.90
2019-01-06T11:22:09.084Z,11.00
2019-01-06T11:25:01.958Z,11.00
2019-01-06T11:27:50.601Z,11.00
2019-01-06T11:30:43.183Z,11.10
2019-01-06T11:33:31.334Z,11.10
2019-01-06T11:36:23.800Z,11.00
2019-01-06T11:39:09.782Z,10.90
2019-01-06T11:42:08.285Z,11.00
2019-01-06T11:45:02.204Z,11.00
2019-01-06T11:47:50.851Z,11.00
2019-01-06T11:50:49.245Z,11.00
2019-01-06T11:53:38.725Z,11.00
2019-01-06T11:56:26.932Z,11.00
2019-01-06T11:59:23.820Z,10.90
2019-01-06T12:02:13.074Z,11.00
2019-01-06T12:05:04.299Z,11.00
2019-01-06T12:07:59.595Z,11.00
2019-01-06T12:10:48.138Z,11.00
2019-01-06T12:13:38.056Z,10.90
2019-01-06T12:16:33.433Z,10.90
2019-01-06T12:19:21.842Z,10.80
2019-01-06T12:22:24.212Z,10.70
2019-01-06T12:25:13.633Z,10.60
2019-01-06T12:28:13.726Z,10.60
2019-01-06T12:30:56.835Z,10.50
2019-01-06T12:33:46.095Z,10.60
2019-01-06T12:36:47.097Z,10.60
2019-01-06T12:39:35.464Z,10.60
2019-01-06T12:42:33.849Z,10.60
2019-01-06T12:45:18.080Z,10.60
2019-01-06T12:48:07.368Z,10.70
2019-01-06T12:50:56.572Z,10.70
2019-01-06T12:53:53.215Z,10.60
2019-01-06T12:56:48.759Z,10.50
2019-01-06T12:59:38.533Z,10.40
2019-01-06T13:02:26.257Z,10.40
2019-01-06T13:05:14.901Z,10.30
2019-01-06T13:08:22.955Z,10.20
2019-01-06T13:11:15.210Z,10.10
2019-01-06T13:14:10.395Z,10.20
2019-01-06T13:16:58.499Z,10.20
2019-01-06T13:19:42.258Z,10.20
2019-01-06T13:22:31.460Z,10.20
2019-01-06T13:25:39.034Z,10.10
2019-01-06T13:28:26.816Z,10.20
2019-01-06T13:31:09.654Z,10.20
2019-01-06T13:33:59.271Z,10.20
2019-01-06T13:36:47.424Z,10.20
2019-01-06T13:39:48.501Z,10.10
2019-01-06T13:42:37.568Z,10.00
2019-01-06T13:45:26.842Z,9.90
2019-01-06T13:48:26.452Z,9.80
2019-01-06T13:51:18.732Z,9.70
2019-01-06T13:54:30.289Z,9.60
2019-01-06T13:57:19.054Z,9.60
2019-01-06T14:00:10.274Z,9.50
2019-01-06T14:02:59.262Z,9.50
2019-01-06T14:05:47.459Z,9.40
2019-01-06T14:08:35.597Z,9.30
2019-01-06T14:11:27.660Z,9.20
2019-01-06T14:14:22.915Z,9.20
2019-01-06T14:17:11.193Z,9.10
2019-01-06T14:20:04.123Z,9.10
2019-01-06T14:22:52.624Z,9.00
2019-01-06T14:25:47.754Z,9.00
2019-01-06T14:28:35.960Z,8.80
2019-01-06T14:31:34.375Z,8.80
2019-01-06T14:34:22.075Z,8.70
2019-01-06T14:37:05.706Z,8.70
2019-01-06T14:39:54.818Z,8.60
2019-01-06T14:42:44.914Z,8.50
2019-01-06T14:45:33.993Z,8.50
2019-01-06T14:48:31.655Z,8.50
2019-01-06T14:51:35.732Z,8.50
2019-01-06T14:54:30.887Z,8.30
2019-01-06T14:57:20.118Z,8.20
2019-01-06T15:00:26.259Z,8.10
2019-01-06T15:03:16.386Z,8.00
2019-01-06T15:06:09.063Z,7.90
2019-01-06T15:08:57.340Z,7.90
2019-01-06T15:11:45.251Z,7.80
2019-01-06T15:14:43.356Z,7.70
2019-01-06T15:17:32.511Z,7.70
2019-01-06T15:20:22.322Z,7.60
2019-01-06T15:23:10.295Z,7.50
2019-01-06T15:26:00.088Z,7.40
2019-01-06T15:28:53.357Z,7.30
2019-01-06T15:31:41.307Z,7.20
2019-01-06T15:34:33.283Z,7.20
2019-01-06T15:37:14.139Z,7.10
2019-01-06T15:40:02.237Z,7.00
2019-01-06T15:42:49.825Z,7.00
2019-01-06T15:45:48.888Z,7.00
2019-01-06T15:48:36.489Z,6.90
2019-01-06T15:51:25.749Z,6.90
2019-01-06T15:54:11.091Z,6.80
2019-01-06T15:57:03.760Z,6.80
2019-01-06T15:59:51.629Z,6.70
2019-01-06T16:02:56.412Z,6.70
2019-01-06T16:05:51.652Z,6.70
2019-01-06T16:08:36.978Z,6.60
2019-01-06T16:11:29.504Z,6.50
2019-01-06T16:14:17.270Z,6.40
2019-01-06T16:17:02.863Z,6.30
2019-01-06T16:19:51.323Z,6.30
2019-01-06T16:22:58.925Z,6.30
2019-01-06T16:25:46.729Z,6.20
2019-01-06T16:28:38.764Z,6.30
2019-01-06T16:31:26.491Z,6.30
2019-01-06T16:34:14.732Z,6.30
2019-01-06T16:37:04.531Z,6.30
2019-01-06T16:39:52.616Z,6.30
2019-01-06T16:42:36.576Z,6.30
2019-01-06T16:45:25.685Z,6.30
2019-01-06T16:48:13.752Z,6.30
2019-01-06T16:51:01.400Z,6.30
2019-01-06T16:54:03.282Z,6.30
2019-01-06T16:56:55.576Z,6.30
2019-01-06T16:59:58.268Z,6.30
2019-01-06T17:02:46.272Z,6.30
2019-01-06T17:05:50.701Z,6.30
2019-01-06T17:08:48.734Z,6.30
2019-01-06T17:11:34.011Z,6.20
2019-01-06T17:14:22.100Z,6.20
2019-01-06T17:17:21.141Z,6.20
2019-01-06T17:20:03.556Z,6.20
2019-01-06T17:22:51.428Z,6.20
2019-01-06T17:25:39.206Z,6.20
2019-01-06T17:28:40.559Z,6.30
2019-01-06T17:31:21.075Z,6.30
2019-01-06T17:34:10.132Z,6.30
2019-01-06T17:36:57.117Z,6.30
2019-01-06T17:39:37.732Z,6.40
2019-01-06T17:42:30.420Z,6.40
2019-01-06T17:45:19.733Z,6.50
2019-01-06T17:48:06.063Z,6.50
2019-01-06T17:50:58.287Z,6.50
2019-01-06T17:54:02.823Z,6.60
2019-01-06T17:57:10.267Z,6.60
2019-01-06T17:59:59.507Z,6.50
2019-01-06T18:02:47.966Z,6.50
2019-01-06T18:05:49.653Z,6.50
2019-01-06T18:08:40.691Z,6.50
2019-01-06T18:11:44.829Z,6.60
2019-01-06T18:14:49.241Z,6.60
2019-01-06T18:17:38.549Z,6.60
2019-01-06T18:20:27.692Z,6.60
2019-01-06T18:23:16.508Z,6.50
2019-01-06T18:26:23.791Z,6.50
2019-01-06T18:29:05.833Z,6.50
2019-01-06T18:32:13.491Z,6.40
2019-01-06T18:35:05.505Z,6.40
2019-01-06T18:38:01.133Z,6.40
2019-01-06T18:40:53.059Z,6.30
2019-01-06T18:43:51.054Z,6.30
2019-01-06T18:46:42.306Z,6.30
2019-01-06T18:49:38.858Z,6.30
2019-01-06T18:52:18.804Z,6.30
2019-01-06T18:55:00.815Z,6.30
2019-01-06T18:57:59.697Z,6.20
2019-01-06T19:00:58.088Z,6.20
2019-01-06T19:03:52.038Z,6.20
2019-01-06T19:06:39.751Z,6.20
2019-01-06T19:09:26.508Z,6.10
2019-01-06T19:12:21.034Z,6.10
2019-01-06T19:15:11.570Z,6.10
2019-01-06T19:18:00.472Z,6.10
2019-01-06T19:20:51.290Z,6.10
2019-01-06T19:23:40.749Z,6.20
2019-01-06T19:26:29.364Z,6.20
2019-01-06T19:29:12.795Z,6.20
2019-01-06T19:32:15.291Z,6.20
2019-01-06T19:35:03.231Z,6.20
2019-01-06T19:38:11.037Z,6.20
2019-01-06T19:40:58.810Z,6.20
2019-01-06T19:43:53.306Z,6.30
2019-01-06T19:46:42.600Z,6.30
2019-01-06T19:49:32.104Z,6.30
2019-01-06T19:52:14.474Z,6.40
2019-01-06T19:55:06.467Z,6.40
2019-01-06T19:58:04.455Z,6.40
2019-01-06T20:00:56.617Z,6.40
2019-01-06T20:03:44.406Z,6.40
2019-01-06T20:06:33.090Z,6.50
2019-01-06T20:09:21.320Z,6.50
2019-01-06T20:12:10.178Z,6.40
2019-01-06T20:15:04.982Z,6.40
2019-01-06T20:18:01.674Z,6.40
2019-01-06T20:20:49.470Z,6.40
2019-01-06T20:23:41.135Z,6.30
2019-01-06T20:26:37.437Z,6.30
2019-01-06T20:29:27.195Z,6.30
2019-01-06T20:32:15.428Z,6.30
2019-01-06T20:35:03.136Z,6.30
2019-01-06T20:37:58.008Z,6.30
2019-01-06T20:40:47.920Z,6.20
2019-01-06T20:43:39.799Z,6.20
2019-01-06T20:46:36.266Z,6.20
2019-01-06T20:49:25.498Z,6.20
2019-01-06T20:52:20.591Z,6.20
2019-01-06T20:55:15.422Z,6.10
2019-01-06T20:58:03.868Z,6.10
2019-01-06T21:00:53.208Z,6.10
2019-01-06T21:03:47.793Z,6.10
2019-01-06T21:06:55.514Z,6.10
2019-01-06T21:09:36.041Z,6.10
2019-01-06T21:12:24.396Z,6.00
2019-01-06T21:15:12.104Z,6.10
2019-01-06T21:18:02.244Z,6.00
2019-01-06T21:20:51.249Z,6.10
2019-01-06T21:23:46.515Z,6.10
2019-01-06T21:26:34.246Z,6.10
2019-01-06T21:29:26.413Z,6.10
2019-01-06T21:32:31.106Z,6.10
2019-01-06T21:35:23.892Z,6.10
2019-01-06T21:38:15.809Z,6.10
2019-01-06T21:41:11.252Z,6.10
2019-01-06T21:43:59.383Z,6.10
2019-01-06T21:47:04.128Z,6.10
2019-01-06T21:49:52.172Z,6.10
2019-01-06T21:52:39.893Z,6.00
2019-01-06T21:55:28.374Z,6.00
2019-01-06T21:58:23.592Z,6.10
2019-01-06T22:01:15.922Z,6.10
2019-01-06T22:04:00.316Z,6.10
2019-01-06T22:06:49.533Z,6.00
2019-01-06T22:09:39.440Z,6.00
2019-01-06T22:12:26.660Z,6.00
2019-01-06T22:15:14.574Z,6.00
2019-01-06T22:18:07.293Z,5.90
2019-01-06T22:20:47.987Z,5.90
2019-01-06T22:23:33.891Z,5.90
2019-01-06T22:26:26.576Z,5.90
2019-01-06T22:29:08.696Z,5.90
2019-01-06T22:31:51.546Z,5.80
2019-01-06T22:34:57.934Z,5.80
2019-01-06T22:37:46.132Z,5.80
2019-01-06T22:40:36.275Z,5.80
2019-01-06T22:43:24.235Z,5.80
2019-01-06T22:46:19.621Z,5.80
2019-01-06T22:49:26.751Z,5.70
2019-01-06T22:52:15.202Z,5.70
2019-01-06T22:55:09.978Z,5.70
2019-01-06T22:57:58.186Z,5.70
2019-01-06T23:00:51.849Z,5.60
2019-01-06T23:03:43.979Z,5.60
2019-01-06T23:06:47.467Z,5.60
2019-01-06T23:09:35.558Z,5.60
2019-01-06T23:12:28.245Z,5.60
2019-01-06T23:15:14.928Z,5.60
2019-01-06T23:18:02.681Z,5.60
2019-01-06T23:20:48.151Z,5.60
2019-01-06T23:23:56.195Z,5.60
2019-01-06T23:26:47.662Z,5.60
2019-01-06T23:29:35.847Z,5.60
2019-01-06T23:32:28.514Z,5.50
2019-01-06T23:35:16.819Z,5.50
2019-01-06T23:38:16.544Z,5.50
2019-01-06T23:41:13.573Z,5.50
2019-01-06T23:44:14.119Z,5.50
2019-01-06T23:47:00.430Z,5.40
2019-01-06T23:49:52.906Z,5.40
2019-01-06T23:52:47.921Z,5.40
2019-01-06T23:55:46.381Z,5.40
2019-01-06T23:58:34.593Z,5.40
